createdAt,value
2023-02-19T00:00:46.113Z,0
2023-02-19T00:02:26.315Z,0
2023-02-19T00:04:06.435Z,0
2023-02-19T00:05:46.568Z,0
2023-02-19T00:07:26.744Z,0
2023-02-19T00:09:06.895Z,0
2023-02-19T00:10:47.103Z,0
2023-02-19T00:12:27.286Z,0
2023-02-19T00:14:07.457Z,0
2023-02-19T00:15:47.651Z,0
2023-02-19T00:17:27.831Z,0
2023-02-19T00:19:07.974Z,0
2023-02-19T00:20:48.175Z,0
2023-02-19T00:22:28.375Z,0
2023-02-19T00:24:08.509Z,0
2023-02-19T00:25:48.708Z,0
2023-02-19T00:27:28.883Z,0
2023-02-19T00:29:08.990Z,0
2023-02-19T00:30:49.234Z,0
2023-02-19T00:32:29.405Z,0
2023-02-19T00:34:09.506Z,0
2023-02-19T00:35:49.679Z,0
2023-02-19T00:37:29.835Z,0
2023-02-19T00:39:09.975Z,0
2023-02-19T00:40:50.137Z,0
2023-02-19T00:42:30.333Z,0
2023-02-19T00:44:10.529Z,0
2023-02-19T00:45:50.629Z,0
2023-02-19T00:47:30.820Z,0
2023-02-19T00:49:11.014Z,0
2023-02-19T00:50:51.187Z,0
2023-02-19T00:52:31.369Z,0
2023-02-19T00:54:11.448Z,0
2023-02-19T00:55:51.711Z,0
2023-02-19T00:57:31.879Z,0
2023-02-19T00:59:12.025Z,0
2023-02-19T01:00:52.163Z,0
2023-02-19T01:02:32.337Z,0
2023-02-19T01:04:12.476Z,0
2023-02-19T01:05:52.758Z,0
2023-02-19T01:07:32.880Z,0
2023-02-19T01:09:13.040Z,0
2023-02-19T01:10:53.229Z,0
2023-02-19T01:12:33.472Z,0
2023-02-19T01:14:13.646Z,0
2023-02-19T01:15:53.874Z,0
2023-02-19T01:17:33.984Z,0
2023-02-19T01:19:14.141Z,0
2023-02-19T01:20:54.259Z,0
2023-02-19T01:22:34.417Z,0
2023-02-19T01:24:14.589Z,0
2023-02-19T01:25:54.783Z,0
2023-02-19T01:27:34.986Z,0
2023-02-19T01:29:15.190Z,0
2023-02-19T01:30:55.349Z,0
2023-02-19T01:32:35.504Z,0
2023-02-19T01:34:15.632Z,0
2023-02-19T01:35:55.792Z,0
2023-02-19T01:37:35.957Z,0
2023-02-19T01:39:16.080Z,0
2023-02-19T01:40:56.233Z,0
2023-02-19T01:42:36.526Z,0
2023-02-19T01:44:16.571Z,0
2023-02-19T01:45:56.750Z,0
2023-02-19T01:47:36.912Z,0
2023-02-19T01:49:17.107Z,0
2023-02-19T01:50:57.244Z,0
2023-02-19T01:52:37.448Z,0
2023-02-19T01:54:17.606Z,0
2023-02-19T01:55:57.849Z,0
2023-02-19T01:57:37.996Z,0
2023-02-19T01:59:18.176Z,0
2023-02-19T02:00:58.402Z,0
2023-02-19T02:02:38.542Z,0
2023-02-19T02:04:18.671Z,0
2023-02-19T02:05:58.857Z,0
2023-02-19T02:07:39.000Z,0
2023-02-19T02:09:19.155Z,0
2023-02-19T02:10:59.422Z,0
2023-02-19T02:12:39.565Z,0
2023-02-19T02:14:19.682Z,0
2023-02-19T02:15:59.876Z,0
2023-02-19T02:17:40.029Z,0
2023-02-19T02:19:20.216Z,0
2023-02-19T02:21:00.346Z,0
2023-02-19T02:22:40.568Z,0
2023-02-19T02:24:20.744Z,0
2023-02-19T02:26:00.915Z,0
2023-02-19T02:27:41.070Z,0
2023-02-19T02:29:21.244Z,0
2023-02-19T02:31:01.474Z,0
2023-02-19T02:32:41.573Z,0
2023-02-19T02:34:21.732Z,0
2023-02-19T02:36:01.866Z,0
2023-02-19T02:37:42.034Z,0
2023-02-19T02:39:22.153Z,0
2023-02-19T02:41:02.402Z,0
2023-02-19T02:42:42.559Z,0
2023-02-19T02:44:22.704Z,0
2023-02-19T02:46:02.946Z,0
2023-02-19T02:47:43.024Z,0
2023-02-19T02:49:23.153Z,0
2023-02-19T02:51:03.260Z,0
2023-02-19T02:52:43.439Z,0
2023-02-19T02:54:23.572Z,0
2023-02-19T02:56:03.786Z,0
2023-02-19T02:57:43.960Z,0
2023-02-19T02:59:24.122Z,0
2023-02-19T03:01:04.309Z,0
2023-02-19T03:02:44.536Z,0
2023-02-19T03:04:24.637Z,0
2023-02-19T03:06:04.877Z,0
2023-02-19T03:07:44.949Z,0
2023-02-19T03:11:05.460Z,0
2023-02-19T03:12:45.600Z,0
2023-02-19T03:16:05.929Z,0
2023-02-19T03:17:46.014Z,0
2023-02-19T03:19:26.106Z,0
2023-02-19T03:21:06.256Z,0
2023-02-19T03:22:46.434Z,0
2023-02-19T03:24:26.546Z,0
2023-02-19T03:26:06.735Z,0
2023-02-19T03:27:46.924Z,0
2023-02-19T03:29:27.077Z,0
2023-02-19T03:31:07.256Z,0
2023-02-19T03:32:47.381Z,0
2023-02-19T03:34:27.549Z,0
2023-02-19T03:36:07.703Z,0
2023-02-19T03:37:47.819Z,0
2023-02-19T03:39:28.071Z,0
2023-02-19T03:41:08.518Z,0
2023-02-19T03:42:48.449Z,0
2023-02-19T03:44:28.620Z,0
2023-02-19T03:46:08.836Z,0
2023-02-19T03:47:48.979Z,0
2023-02-19T03:49:29.116Z,0
2023-02-19T03:51:09.609Z,0
2023-02-19T03:52:49.472Z,0
2023-02-19T03:54:29.651Z,0
2023-02-19T03:56:09.859Z,0
2023-02-19T03:57:50.049Z,0
2023-02-19T03:59:30.189Z,0
2023-02-19T04:01:10.834Z,0
2023-02-19T04:02:50.518Z,0
2023-02-19T04:04:30.789Z,0
2023-02-19T04:06:10.894Z,0
2023-02-19T04:07:51.103Z,0
2023-02-19T04:09:31.257Z,0
2023-02-19T04:11:11.821Z,0
2023-02-19T04:12:51.606Z,0
2023-02-19T04:14:31.702Z,0
2023-02-19T04:16:11.871Z,0
2023-02-19T04:17:52.012Z,0
2023-02-19T04:19:32.150Z,0
2023-02-19T04:21:12.634Z,0
2023-02-19T04:22:52.447Z,0
2023-02-19T04:24:32.736Z,0
2023-02-19T04:26:12.760Z,0
2023-02-19T04:27:52.941Z,0
2023-02-19T04:29:33.087Z,0
2023-02-19T04:31:13.772Z,0
2023-02-19T04:32:53.426Z,0
2023-02-19T04:34:33.584Z,0
2023-02-19T04:36:13.786Z,0
2023-02-19T04:37:53.949Z,0
2023-02-19T04:39:34.126Z,0
2023-02-19T04:41:14.294Z,0
2023-02-19T04:42:54.457Z,0
2023-02-19T04:44:34.598Z,0
2023-02-19T04:46:14.809Z,0
2023-02-19T04:47:54.871Z,0
2023-02-19T04:49:35.008Z,0
2023-02-19T04:51:15.132Z,0
2023-02-19T04:52:55.239Z,0
2023-02-19T04:54:35.371Z,0
2023-02-19T04:56:15.590Z,0
2023-02-19T04:57:55.726Z,0
2023-02-19T04:59:35.886Z,0
2023-02-19T05:01:16.117Z,0
2023-02-19T05:02:56.253Z,0
2023-02-19T05:04:36.420Z,0
2023-02-19T05:06:16.546Z,0
2023-02-19T05:07:56.683Z,0
2023-02-19T05:09:36.843Z,0
2023-02-19T05:11:17.064Z,0
2023-02-19T05:12:58.054Z,0
2023-02-19T05:14:37.397Z,0
2023-02-19T05:16:17.538Z,0
2023-02-19T05:17:57.683Z,0
2023-02-19T05:19:37.832Z,0
2023-02-19T05:21:17.966Z,0
2023-02-19T05:22:58.119Z,0
2023-02-19T05:24:38.238Z,0
2023-02-19T05:26:18.460Z,0
2023-02-19T05:27:58.603Z,0
2023-02-19T05:29:38.734Z,0
2023-02-19T05:31:19.093Z,0
2023-02-19T05:32:59.148Z,0
2023-02-19T05:34:39.312Z,0
2023-02-19T05:36:19.642Z,0
2023-02-19T05:37:59.672Z,0
2023-02-19T05:39:39.864Z,0
2023-02-19T05:41:20.023Z,0
2023-02-19T05:43:00.202Z,0
2023-02-19T05:44:40.449Z,0
2023-02-19T05:46:20.673Z,0
2023-02-19T05:48:00.777Z,0
2023-02-19T05:49:40.982Z,0
2023-02-19T05:51:21.172Z,0
2023-02-19T05:53:01.329Z,0
2023-02-19T05:54:41.555Z,1
2023-02-19T05:56:21.788Z,1
2023-02-19T05:58:02.000Z,2
2023-02-19T05:59:42.134Z,1
2023-02-19T06:01:22.350Z,1
2023-02-19T06:03:02.608Z,2
2023-02-19T06:04:42.675Z,2
2023-02-19T06:06:22.840Z,2
2023-02-19T06:08:02.986Z,3
2023-02-19T06:09:43.207Z,6
2023-02-19T06:13:03.623Z,23
2023-02-19T06:14:43.814Z,30
2023-02-19T06:16:24.072Z,41
2023-02-19T06:18:04.100Z,54
2023-02-19T06:19:44.334Z,58
2023-02-19T06:21:24.476Z,55
2023-02-19T06:23:04.642Z,58
2023-02-19T06:24:44.762Z,63
2023-02-19T06:26:24.949Z,74
2023-02-19T06:28:05.127Z,98
2023-02-19T06:29:45.287Z,120
2023-02-19T06:31:25.588Z,103
2023-02-19T06:33:05.611Z,122
2023-02-19T06:34:45.828Z,204
2023-02-19T06:36:26.056Z,230
2023-02-19T06:38:06.165Z,308
2023-02-19T06:39:46.366Z,469
2023-02-19T06:41:26.585Z,600
2023-02-19T06:43:06.746Z,607
2023-02-19T06:44:46.938Z,504
2023-02-19T06:46:27.129Z,530
2023-02-19T06:48:07.231Z,625
2023-02-19T06:49:47.398Z,901
2023-02-19T06:51:27.592Z,869
2023-02-19T06:53:07.692Z,1202
2023-02-19T06:54:47.833Z,1548
2023-02-19T06:56:28.111Z,1798
2023-02-19T06:58:08.268Z,1987
2023-02-19T06:59:48.457Z,2105
2023-02-19T07:01:28.724Z,2120
2023-02-19T07:03:08.812Z,2172
2023-02-19T07:04:49.014Z,2277
2023-02-19T07:06:29.198Z,2196
2023-02-19T07:08:09.410Z,2266
2023-02-19T07:09:49.600Z,2911
2023-02-19T07:11:29.703Z,2544
2023-02-19T07:13:09.845Z,2065
2023-02-19T07:14:50.032Z,3708
2023-02-19T07:16:30.223Z,3383
2023-02-19T07:18:10.355Z,2113
2023-02-19T07:19:50.454Z,1712
2023-02-19T07:21:30.618Z,1937
2023-02-19T07:23:10.747Z,1798
2023-02-19T07:24:50.915Z,2049
2023-02-19T07:26:31.066Z,1830
2023-02-19T07:28:11.241Z,1243
2023-02-19T07:29:51.406Z,945
2023-02-19T07:31:31.730Z,1043
2023-02-19T07:33:11.828Z,906
2023-02-19T07:34:52.065Z,684
2023-02-19T07:36:32.207Z,751
2023-02-19T07:38:12.355Z,940
2023-02-19T07:39:52.548Z,1429
2023-02-19T07:41:32.673Z,1688
2023-02-19T07:43:12.821Z,2842
2023-02-19T07:44:52.969Z,3863
2023-02-19T07:46:33.180Z,3139
2023-02-19T07:48:13.370Z,2602
2023-02-19T07:49:53.602Z,2550
2023-02-19T07:51:33.731Z,2506
2023-02-19T07:53:13.912Z,2332
2023-02-19T07:54:54.091Z,2307
2023-02-19T07:56:34.305Z,2323
2023-02-19T07:58:14.436Z,2913
2023-02-19T07:59:54.585Z,2851
2023-02-19T08:01:34.829Z,2559
2023-02-19T08:03:15.027Z,2747
2023-02-19T08:04:55.139Z,3106
2023-02-19T08:06:35.312Z,3579
2023-02-19T08:08:15.498Z,4290
2023-02-19T08:09:55.625Z,4881
2023-02-19T08:11:35.886Z,4114
2023-02-19T08:13:16.109Z,4684
2023-02-19T08:14:56.247Z,5110
2023-02-19T08:16:42.968Z,4064
2023-02-19T08:18:16.557Z,3585
2023-02-19T08:19:56.743Z,3766
2023-02-19T08:21:36.918Z,4131
2023-02-19T08:23:17.121Z,3938
2023-02-19T08:24:57.372Z,3512
2023-02-19T08:26:37.548Z,3836
2023-02-19T08:28:17.889Z,4543
2023-02-19T08:29:57.901Z,4755
2023-02-19T08:31:38.247Z,4981
2023-02-19T08:33:18.139Z,4364
2023-02-19T08:34:58.268Z,4737
2023-02-19T08:36:38.501Z,5512
2023-02-19T08:38:18.635Z,6049
2023-02-19T08:39:58.787Z,7203
2023-02-19T08:41:38.959Z,8949
2023-02-19T08:43:19.100Z,8962
2023-02-19T08:44:59.272Z,7808
2023-02-19T08:46:39.437Z,7117
2023-02-19T08:48:19.595Z,6917
2023-02-19T08:49:59.780Z,9091
2023-02-19T08:51:39.917Z,9382
2023-02-19T08:53:20.034Z,11572
2023-02-19T08:55:00.226Z,13322
2023-02-19T08:56:40.529Z,13279
2023-02-19T08:58:20.618Z,12414
2023-02-19T09:00:00.768Z,14406
2023-02-19T09:01:41.049Z,13125
2023-02-19T09:03:21.187Z,17568
2023-02-19T09:05:01.305Z,15436
2023-02-19T09:06:41.445Z,13300
2023-02-19T09:08:21.625Z,13838
2023-02-19T09:10:01.812Z,14825
2023-02-19T09:11:41.972Z,14240
2023-02-19T09:13:22.182Z,13121
2023-02-19T09:15:02.388Z,11796
2023-02-19T09:16:42.557Z,12036
2023-02-19T09:18:22.740Z,10512
2023-02-19T09:20:02.846Z,10547
2023-02-19T09:21:43.026Z,10072
2023-02-19T09:23:23.173Z,8232
2023-02-19T09:25:03.401Z,8374
2023-02-19T09:26:43.570Z,6974
2023-02-19T09:28:23.731Z,5824
2023-02-19T09:30:03.935Z,7035
2023-02-19T09:31:44.281Z,6100
2023-02-19T09:33:24.213Z,5833
2023-02-19T09:35:04.324Z,5866
2023-02-19T09:36:44.460Z,6490
2023-02-19T09:38:24.635Z,6749
2023-02-19T09:40:04.843Z,8218
2023-02-19T09:41:45.003Z,7558
2023-02-19T09:43:25.170Z,8596
2023-02-19T09:45:05.350Z,8357
2023-02-19T09:46:45.575Z,8122
2023-02-19T09:48:25.821Z,8214
2023-02-19T09:50:06.110Z,10252
2023-02-19T09:51:46.350Z,10621
2023-02-19T09:53:26.603Z,13286
2023-02-19T09:55:07.052Z,17688
2023-02-19T09:56:47.456Z,18024
2023-02-19T09:58:27.857Z,23208
2023-02-19T10:00:10.612Z,21824
2023-02-19T10:01:51.571Z,19184
2023-02-19T10:03:28.731Z,19592
2023-02-19T10:05:08.974Z,21328
2023-02-19T10:06:49.184Z,21336
2023-02-19T10:08:29.510Z,19960
2023-02-19T10:10:09.806Z,17144
2023-02-19T10:11:50.159Z,12878
2023-02-19T10:13:30.371Z,10873
2023-02-19T10:15:10.561Z,10910
2023-02-19T10:16:50.732Z,10973
2023-02-19T10:18:31.021Z,11232
2023-02-19T10:20:11.364Z,12776
2023-02-19T10:21:51.614Z,12405
2023-02-19T10:23:31.906Z,12329
2023-02-19T10:25:12.204Z,13078
2023-02-19T10:26:52.505Z,18832
2023-02-19T10:28:32.716Z,18768
2023-02-19T10:30:12.880Z,15687
2023-02-19T10:31:53.167Z,13910
2023-02-19T10:33:33.279Z,11489
2023-02-19T10:35:13.435Z,13850
2023-02-19T10:36:53.568Z,16896
2023-02-19T10:38:33.674Z,16144
2023-02-19T10:40:13.958Z,13795
2023-02-19T10:41:54.193Z,12694
2023-02-19T10:43:34.512Z,11425
2023-02-19T10:45:14.704Z,12551
2023-02-19T10:46:55.006Z,13480
2023-02-19T10:48:35.210Z,14253
2023-02-19T10:50:15.419Z,14575
2023-02-19T10:51:55.588Z,16138
2023-02-19T10:53:35.799Z,20664
2023-02-19T10:55:15.958Z,22200
2023-02-19T10:56:56.132Z,20672
2023-02-19T10:58:36.284Z,22232
2023-02-19T11:00:16.518Z,25368
2023-02-19T11:01:56.661Z,25192
2023-02-19T11:03:36.828Z,24608
2023-02-19T11:05:17.082Z,25704
2023-02-19T11:06:57.251Z,24592
2023-02-19T11:08:37.424Z,23816
2023-02-19T11:10:17.621Z,23296
2023-02-19T11:11:57.777Z,21800
2023-02-19T11:13:37.985Z,22432
2023-02-19T11:15:18.146Z,26832
2023-02-19T11:16:58.348Z,24800
2023-02-19T11:18:38.536Z,34528
2023-02-19T11:20:18.762Z,23896
2023-02-19T11:21:58.905Z,28528
2023-02-19T11:23:39.124Z,23272
2023-02-19T11:25:19.282Z,24896
2023-02-19T11:26:59.479Z,24672
2023-02-19T11:28:39.663Z,19360
2023-02-19T11:30:19.875Z,19968
2023-02-19T11:32:00.250Z,21808
2023-02-19T11:33:40.273Z,22040
2023-02-19T11:35:20.429Z,17488
2023-02-19T11:37:00.628Z,21336
2023-02-19T11:38:40.813Z,24032
2023-02-19T11:40:21.003Z,28272
2023-02-19T11:42:01.116Z,26760
2023-02-19T11:43:41.254Z,24368
2023-02-19T11:45:21.484Z,26720
2023-02-19T11:47:01.642Z,28192
2023-02-19T11:48:41.797Z,25984
2023-02-19T11:50:21.938Z,30528
2023-02-19T11:52:02.151Z,31200
2023-02-19T11:53:42.289Z,30200
2023-02-19T11:55:22.717Z,35240
2023-02-19T11:55:22.725Z,35240
2023-02-19T11:55:22.735Z,35240
2023-02-19T11:57:02.631Z,37024
2023-02-19T11:58:42.807Z,35272
2023-02-19T12:00:22.952Z,27840
2023-02-19T12:02:03.220Z,24720
2023-02-19T12:03:43.252Z,23344
2023-02-19T12:05:23.482Z,24576
2023-02-19T12:07:03.625Z,24808
2023-02-19T12:08:43.769Z,25504
2023-02-19T12:10:23.936Z,30416
2023-02-19T12:12:04.120Z,31224
2023-02-19T12:13:44.253Z,33600
2023-02-19T12:15:24.422Z,31120
2023-02-19T12:17:04.588Z,35048
2023-02-19T12:18:44.741Z,32056
2023-02-19T12:20:24.956Z,36272
2023-02-19T12:22:05.109Z,32680
2023-02-19T12:23:45.303Z,32240
2023-02-19T12:25:25.478Z,30520
2023-02-19T12:27:05.647Z,29520
2023-02-19T12:28:45.836Z,27336
2023-02-19T12:30:29.067Z,26280
2023-02-19T12:32:06.227Z,27928
2023-02-19T12:33:46.335Z,27440
2023-02-19T12:35:26.521Z,26248
2023-02-19T12:37:06.735Z,23688
2023-02-19T12:38:46.867Z,26048
2023-02-19T12:40:27.067Z,32280
2023-02-19T12:42:07.240Z,32600
2023-02-19T12:43:47.378Z,32480
2023-02-19T12:45:27.539Z,29560
2023-02-19T12:47:07.712Z,26944
2023-02-19T12:48:47.817Z,24872
2023-02-19T12:50:27.974Z,25920
2023-02-19T12:52:08.109Z,25912
2023-02-19T12:53:48.266Z,24864
2023-02-19T12:55:28.462Z,24904
2023-02-19T12:57:08.575Z,25000
2023-02-19T12:58:48.728Z,27040
2023-02-19T13:00:28.886Z,27280
2023-02-19T13:02:09.167Z,26960
2023-02-19T13:03:49.290Z,26752
2023-02-19T13:05:29.436Z,25712
2023-02-19T13:07:09.592Z,24360
2023-02-19T13:09:05.280Z,20504
2023-02-19T13:10:29.907Z,20248
2023-02-19T13:12:13.143Z,20936
2023-02-19T13:13:50.232Z,18352
2023-02-19T13:15:30.369Z,16936
2023-02-19T13:17:10.529Z,17312
2023-02-19T13:18:50.698Z,16504
2023-02-19T13:20:30.871Z,16665
2023-02-19T13:22:11.016Z,18304
2023-02-19T13:23:51.174Z,19800
2023-02-19T13:25:31.343Z,20584
2023-02-19T13:27:11.508Z,20696
2023-02-19T13:28:51.633Z,20832
2023-02-19T13:30:31.837Z,20864
2023-02-19T13:32:11.964Z,20040
2023-02-19T13:33:52.106Z,19536
2023-02-19T13:35:32.265Z,19600
2023-02-19T13:37:12.388Z,20408
2023-02-19T13:38:52.542Z,20584
2023-02-19T13:40:32.714Z,20848
2023-02-19T13:42:12.854Z,20440
2023-02-19T13:43:53.012Z,20112
2023-02-19T13:45:33.151Z,20320
2023-02-19T13:48:53.503Z,21896
2023-02-19T13:50:33.625Z,21480
2023-02-19T13:52:13.770Z,21120
2023-02-19T13:53:53.990Z,20056
2023-02-19T13:55:34.142Z,20056
2023-02-19T13:57:14.303Z,19432
2023-02-19T13:58:54.426Z,17624
2023-02-19T14:00:34.588Z,15351
2023-02-19T14:02:14.799Z,14859
2023-02-19T14:03:54.913Z,14493
2023-02-19T14:05:35.088Z,13535
2023-02-19T14:07:15.221Z,11637
2023-02-19T14:08:55.366Z,10507
2023-02-19T14:10:35.559Z,9984
2023-02-19T14:12:16.390Z,9772
2023-02-19T14:13:55.853Z,9000
2023-02-19T14:15:36.169Z,9211
2023-02-19T14:17:19.312Z,8874
2023-02-19T14:18:56.430Z,8411
2023-02-19T14:20:36.577Z,8668
2023-02-19T14:22:16.759Z,8743
2023-02-19T14:23:56.946Z,7978
2023-02-19T14:25:37.161Z,8434
2023-02-19T14:27:17.298Z,8210
2023-02-19T14:28:57.433Z,7747
2023-02-19T14:30:37.747Z,8254
2023-02-19T14:32:17.798Z,8597
2023-02-19T14:33:57.975Z,7624
2023-02-19T14:35:38.145Z,7440
2023-02-19T14:37:18.297Z,7527
2023-02-19T14:38:58.394Z,8740
2023-02-19T14:40:38.557Z,8677
2023-02-19T14:42:18.755Z,8713
2023-02-19T14:43:58.938Z,9345
2023-02-19T14:45:39.086Z,10242
2023-02-19T14:47:22.377Z,9480
2023-02-19T14:48:59.463Z,8779
2023-02-19T14:50:39.635Z,8041
2023-02-19T14:52:19.828Z,8162
2023-02-19T14:54:00.011Z,7893
2023-02-19T14:55:40.124Z,7555
2023-02-19T14:57:20.304Z,6798
2023-02-19T14:59:00.441Z,6289
2023-02-19T15:00:40.720Z,5878
2023-02-19T15:02:20.759Z,6075
2023-02-19T15:04:00.899Z,5931
2023-02-19T15:05:41.130Z,6212
2023-02-19T15:07:21.244Z,6277
2023-02-19T15:09:01.413Z,6183
2023-02-19T15:10:41.613Z,6311
2023-02-19T15:12:21.815Z,5692
2023-02-19T15:14:01.903Z,5629
2023-02-19T15:15:42.123Z,5877
2023-02-19T15:17:22.248Z,5216
2023-02-19T15:19:02.419Z,5181
2023-02-19T15:20:42.662Z,5165
2023-02-19T15:22:25.908Z,5053
2023-02-19T15:24:03.196Z,5180
2023-02-19T15:25:43.400Z,5182
2023-02-19T15:27:23.614Z,5266
2023-02-19T15:29:03.905Z,5439
2023-02-19T15:30:44.108Z,5507
2023-02-19T15:32:24.463Z,5665
2023-02-19T15:34:04.583Z,4814
2023-02-19T15:35:44.805Z,5566
2023-02-19T15:37:25.057Z,5180
2023-02-19T15:39:05.350Z,5101
2023-02-19T15:40:45.575Z,4738
2023-02-19T15:42:25.673Z,3663
2023-02-19T15:44:05.988Z,3525
2023-02-19T15:45:46.262Z,3350
2023-02-19T15:47:28.737Z,3008
2023-02-19T15:49:06.687Z,2974
2023-02-19T15:50:47.075Z,3083
2023-02-19T15:52:27.276Z,3134
2023-02-19T15:54:07.498Z,2939
2023-02-19T15:55:47.684Z,2915
2023-02-19T15:57:27.903Z,2594
2023-02-19T15:59:08.030Z,2529
2023-02-19T16:00:55.290Z,2319
2023-02-19T16:02:28.394Z,2103
2023-02-19T16:04:08.597Z,1746
2023-02-19T16:05:48.791Z,1472
2023-02-19T16:07:28.975Z,1270
2023-02-19T16:09:09.191Z,1270
2023-02-19T16:10:49.445Z,1160
2023-02-19T16:12:32.764Z,1008
2023-02-19T16:14:09.886Z,884
2023-02-19T16:15:50.082Z,863
2023-02-19T16:17:30.313Z,972
2023-02-19T16:19:10.415Z,991
2023-02-19T16:20:50.620Z,953
2023-02-19T16:22:30.811Z,749
2023-02-19T16:24:11.028Z,574
2023-02-19T16:25:51.194Z,527
2023-02-19T16:27:31.382Z,588
2023-02-19T16:29:11.544Z,610
2023-02-19T16:30:54.775Z,477
2023-02-19T16:32:31.949Z,306
2023-02-19T16:34:12.021Z,264
2023-02-19T16:35:52.368Z,227
2023-02-19T16:37:32.515Z,177
2023-02-19T16:39:12.688Z,169
2023-02-19T16:40:52.845Z,139
2023-02-19T16:42:33.017Z,134
2023-02-19T16:44:13.184Z,123
2023-02-19T16:45:53.481Z,108
2023-02-19T16:47:33.512Z,90
2023-02-19T16:49:13.680Z,67
2023-02-19T16:50:56.888Z,53
2023-02-19T16:52:33.990Z,46
2023-02-19T16:54:14.152Z,39
2023-02-19T16:55:54.371Z,33
2023-02-19T16:57:34.464Z,24
2023-02-19T16:59:14.653Z,21
2023-02-19T17:00:54.877Z,14
2023-02-19T17:02:35.057Z,8
2023-02-19T17:04:15.358Z,6
2023-02-19T17:05:55.301Z,6
2023-02-19T17:07:35.425Z,4
2023-02-19T17:09:15.630Z,3
2023-02-19T17:10:58.872Z,2
2023-02-19T17:12:35.929Z,2
2023-02-19T17:14:16.173Z,2
2023-02-19T17:15:56.333Z,1
2023-02-19T17:17:36.500Z,1
2023-02-19T17:19:16.630Z,1
2023-02-19T17:20:56.807Z,0
2023-02-19T17:22:40.066Z,0
2023-02-19T17:24:17.222Z,0
2023-02-19T17:25:57.421Z,0
2023-02-19T17:27:37.570Z,0
2023-02-19T17:29:17.723Z,0
2023-02-19T17:30:57.903Z,0
2023-02-19T17:32:41.356Z,0
2023-02-19T17:34:18.299Z,0
2023-02-19T17:35:58.477Z,0
2023-02-19T17:37:38.633Z,0
2023-02-19T17:39:18.778Z,0
2023-02-19T17:40:58.993Z,0
2023-02-19T17:42:39.127Z,0
2023-02-19T17:44:19.238Z,0
2023-02-19T17:45:59.416Z,0
2023-02-19T17:47:39.595Z,0
2023-02-19T17:49:19.804Z,0
2023-02-19T17:50:59.962Z,0
2023-02-19T17:52:40.167Z,0
2023-02-19T17:54:20.352Z,0
2023-02-19T17:56:00.482Z,0
2023-02-19T17:57:40.668Z,0
2023-02-19T17:59:20.875Z,0
2023-02-19T18:01:01.109Z,0
2023-02-19T18:02:41.240Z,0
2023-02-19T18:04:21.528Z,0
2023-02-19T18:06:01.577Z,0
2023-02-19T18:07:41.743Z,0
2023-02-19T18:09:21.976Z,0
2023-02-19T18:11:02.140Z,0
2023-02-19T18:14:22.421Z,0
2023-02-19T18:16:02.589Z,0
2023-02-19T18:17:49.791Z,0
2023-02-19T18:19:23.020Z,0
2023-02-19T18:21:03.088Z,0
2023-02-19T18:22:43.241Z,0
2023-02-19T18:24:23.392Z,0
2023-02-19T18:26:03.565Z,0
2023-02-19T18:27:43.724Z,0
2023-02-19T18:29:23.926Z,0
2023-02-19T18:31:04.233Z,0
2023-02-19T18:32:44.265Z,0
2023-02-19T18:34:24.527Z,0
2023-02-19T18:36:04.679Z,0
2023-02-19T18:37:44.860Z,0
2023-02-19T18:39:25.051Z,0
2023-02-19T18:41:05.185Z,0
2023-02-19T18:42:45.427Z,0
2023-02-19T18:44:25.490Z,0
2023-02-19T18:46:08.745Z,0
2023-02-19T18:47:45.824Z,0
2023-02-19T18:49:29.048Z,0
2023-02-19T18:51:06.197Z,0
2023-02-19T18:52:46.332Z,0
2023-02-19T18:54:26.484Z,0
2023-02-19T18:56:06.621Z,0
2023-02-19T18:57:46.897Z,0
2023-02-19T18:59:27.097Z,0
2023-02-19T19:01:07.368Z,0
2023-02-19T19:02:51.437Z,0
2023-02-19T19:04:27.605Z,0
2023-02-19T19:06:07.721Z,0
2023-02-19T19:07:47.858Z,0
2023-02-19T19:09:28.019Z,0
2023-02-19T19:11:08.234Z,0
2023-02-19T19:12:48.355Z,0
2023-02-19T19:14:28.485Z,0
2023-02-19T19:16:08.753Z,0
2023-02-19T19:17:48.840Z,0
2023-02-19T19:19:29.024Z,0
2023-02-19T19:21:09.330Z,0
2023-02-19T19:22:49.335Z,0
2023-02-19T19:24:29.504Z,0
2023-02-19T19:26:10.034Z,0
2023-02-19T19:27:49.917Z,0
2023-02-19T19:29:30.058Z,0
2023-02-19T19:31:10.773Z,0
2023-02-19T19:32:50.370Z,0
2023-02-19T19:34:30.494Z,0
2023-02-19T19:36:10.650Z,0
2023-02-19T19:37:50.848Z,0
2023-02-19T19:39:30.991Z,0
2023-02-19T19:41:11.423Z,0
2023-02-19T19:42:54.357Z,0
2023-02-19T19:44:31.467Z,0
2023-02-19T19:46:11.606Z,0
2023-02-19T19:47:51.852Z,0
2023-02-19T19:49:31.986Z,0
2023-02-19T19:51:12.451Z,0
2023-02-19T19:52:52.333Z,0
2023-02-19T19:54:32.457Z,0
2023-02-19T19:56:12.619Z,0
2023-02-19T19:57:53.108Z,0
2023-02-19T19:59:32.981Z,0
2023-02-19T20:01:13.461Z,0
2023-02-19T20:02:53.403Z,0
2023-02-19T20:04:33.443Z,0
2023-02-19T20:06:13.607Z,0
2023-02-19T20:07:53.758Z,0
2023-02-19T20:09:33.909Z,0
2023-02-19T20:11:14.088Z,0
2023-02-19T20:12:54.356Z,0
2023-02-19T20:14:34.490Z,0
2023-02-19T20:16:14.745Z,0
2023-02-19T20:17:54.986Z,0
2023-02-19T20:19:34.932Z,0
2023-02-19T20:21:15.226Z,0
2023-02-19T20:22:55.577Z,0
2023-02-19T20:24:35.411Z,0
2023-02-19T20:26:15.568Z,0
2023-02-19T20:27:55.954Z,0
2023-02-19T20:29:35.880Z,0
2023-02-19T20:31:16.132Z,0
2023-02-19T20:32:56.361Z,0
2023-02-19T20:34:36.358Z,0
2023-02-19T20:36:16.537Z,0
2023-02-19T20:37:56.842Z,0
2023-02-19T20:39:36.933Z,0
2023-02-19T20:41:17.102Z,0
2023-02-19T20:42:57.412Z,0
2023-02-19T20:44:37.425Z,0
2023-02-19T20:46:17.598Z,0
2023-02-19T20:47:57.757Z,0
2023-02-19T20:49:37.934Z,0
2023-02-19T20:51:18.069Z,0
2023-02-19T20:52:58.258Z,0
2023-02-19T20:54:38.454Z,0
2023-02-19T20:56:18.569Z,0
2023-02-19T20:57:58.743Z,0
2023-02-19T20:59:38.938Z,0
2023-02-19T21:01:19.134Z,0
2023-02-19T21:02:59.345Z,0
2023-02-19T21:04:39.396Z,0
2023-02-19T21:06:19.542Z,0
2023-02-19T21:07:59.648Z,0
2023-02-19T21:09:39.831Z,0
2023-02-19T21:11:20.037Z,0
2023-02-19T21:13:00.193Z,0
2023-02-19T21:14:40.341Z,0
2023-02-19T21:16:20.507Z,0
2023-02-19T21:18:00.598Z,0
2023-02-19T21:19:40.759Z,0
2023-02-19T21:21:20.910Z,0
2023-02-19T21:23:01.069Z,0
2023-02-19T21:24:41.221Z,0
2023-02-19T21:26:21.430Z,0
2023-02-19T21:28:01.581Z,0
2023-02-19T21:29:41.763Z,0
2023-02-19T21:31:24.466Z,0
2023-02-19T21:33:02.101Z,0
2023-02-19T21:34:42.254Z,0
2023-02-19T21:36:22.403Z,0
2023-02-19T21:38:02.551Z,0
2023-02-19T21:39:42.789Z,0
2023-02-19T21:41:22.928Z,0
2023-02-19T21:43:03.136Z,0
2023-02-19T21:44:43.328Z,0
2023-02-19T21:46:23.507Z,0
2023-02-19T21:48:03.685Z,0
2023-02-19T21:49:43.788Z,0
2023-02-19T21:51:23.969Z,0
2023-02-19T21:53:04.084Z,0
2023-02-19T21:54:44.245Z,0
2023-02-19T21:56:24.361Z,0
2023-02-19T21:58:04.560Z,0
2023-02-19T21:59:44.714Z,0
2023-02-19T22:01:24.917Z,0
2023-02-19T22:03:05.127Z,0
2023-02-19T22:04:45.235Z,0
2023-02-19T22:06:26.925Z,0
2023-02-19T22:08:05.519Z,0
2023-02-19T22:09:45.732Z,0
2023-02-19T22:11:25.901Z,0
2023-02-19T22:13:06.069Z,0
2023-02-19T22:14:46.224Z,0
2023-02-19T22:16:26.412Z,0
2023-02-19T22:18:06.511Z,0
2023-02-19T22:19:46.635Z,0
2023-02-19T22:21:26.804Z,0
2023-02-19T22:23:06.950Z,0
2023-02-19T22:24:47.133Z,0
2023-02-19T22:26:27.260Z,0
2023-02-19T22:28:07.484Z,0
2023-02-19T22:29:47.671Z,0
2023-02-19T22:31:28.066Z,0
2023-02-19T22:33:08.000Z,0
2023-02-19T22:34:48.182Z,0
2023-02-19T22:36:28.352Z,0
2023-02-19T22:38:08.508Z,0
2023-02-19T22:39:48.768Z,0
2023-02-19T22:41:28.935Z,0
2023-02-19T22:43:09.086Z,0
2023-02-19T22:44:49.186Z,0
2023-02-19T22:46:29.417Z,0
2023-02-19T22:48:10.530Z,0
2023-02-19T22:49:49.816Z,0
2023-02-19T22:51:29.943Z,0
2023-02-19T22:53:10.104Z,0
2023-02-19T22:54:50.250Z,0
2023-02-19T22:56:30.427Z,0
2023-02-19T22:58:10.598Z,0
2023-02-19T22:59:50.804Z,0
2023-02-19T23:01:31.042Z,0
2023-02-19T23:03:11.084Z,0
2023-02-19T23:04:51.240Z,0
2023-02-19T23:06:31.354Z,0
2023-02-19T23:08:11.487Z,0
2023-02-19T23:09:51.695Z,0
2023-02-19T23:11:31.870Z,0
2023-02-19T23:13:12.001Z,0
2023-02-19T23:14:52.142Z,0
2023-02-19T23:16:32.353Z,0
2023-02-19T23:18:12.440Z,0
2023-02-19T23:19:52.563Z,0
2023-02-19T23:21:32.716Z,0
2023-02-19T23:23:12.882Z,0
2023-02-19T23:24:53.064Z,0
2023-02-19T23:26:33.231Z,0
2023-02-19T23:28:13.452Z,0